This is the latest recevied weather packets stored in our database for station/object YO8SSH-13. If no packets are shown the sender has not sent any weather packets the latest 10 day(s).
| Time | Temp. | Humidity | Pressure | Rain* | Wind** | Luminosity | Snow |
|---|---|---|---|---|---|---|---|
| 1777960446 | 19.44° C | 49% | 1013 hPa | 0 mm | - | - | - |
| 1777959547 | 18.33° C | 52% | 1013 hPa | 0 mm | - | - | - |
| 1777958647 | 16.11° C | 58% | 1013 hPa | 0 mm | - | - | - |
| 1777957748 | 13.89° C | 62% | 1013 hPa | 0 mm | - | - | - |
| 1777956849 | 11.11° C | 66% | 1013 hPa | 0 mm | - | - | - |
| 1777955947 | 10° C | 65% | 1013 hPa | 0 mm | - | - | - |
| 1777955046 | 10° C | 65% | 1013 hPa | 0 mm | - | - | - |
| 1777954147 | 9.44° C | 66% | 1013 hPa | 0 mm | - | - | - |
| 1777953246 | 8.89° C | 66% | 1013 hPa | 0 mm | - | - | - |
| 1777952347 | 8.89° C | 66% | 1013 hPa | 0 mm | - | - | - |
| 1777951450 | 8.89° C | 65% | 1013 hPa | 0 mm | - | - | - |
| 1777950547 | 8.89° C | 64% | 1012 hPa | 0 mm | - | - | - |
| 1777949666 | 8.89° C | 64% | 1012 hPa | 0 mm | - | - | - |
| 1777948746 | 9.44° C | 63% | 1012 hPa | 0 mm | - | - | - |
| 1777947848 | 9.44° C | 62% | 1012 hPa | 0 mm | - | - | - |
| 1777946947 | 9.44° C | 61% | 1012 hPa | 0 mm | - | - | - |
| 1777946047 | 10° C | 60% | 1012 hPa | 0 mm | - | - | - |
| 1777945147 | 10° C | 60% | 1012 hPa | 0 mm | - | - | - |
| 1777944246 | 10° C | 59% | 1012 hPa | 0 mm | - | - | - |
| 1777943346 | 10.56° C | 58% | 1012 hPa | 0 mm | - | - | - |
| 1777942447 | 11.11° C | 58% | 1012 hPa | 0 mm | - | - | - |
| 1777941546 | 11.11° C | 57% | 1012 hPa | 0 mm | - | - | - |
| 1777940646 | 11.11° C | 57% | 1012 hPa | 0 mm | - | - | - |
| 1777939746 | 11.11° C | 56% | 1012 hPa | 0 mm | - | - | - |
| 1777938847 | 11.67° C | 56% | 1012 hPa | 0 mm | - | - | - |
* Rain latest hour (hover to see other rain measurements)
** Current wind speed in m/s (hover to see current wind gust speed)